createdAt,value
2022-12-03T00:00:59.139Z,17.70
2022-12-03T00:06:00.447Z,15.20
2022-12-03T00:11:01.553Z,14.10
2022-12-03T00:16:02.819Z,13.60
2022-12-03T00:21:04.132Z,15.60
2022-12-03T00:26:05.333Z,12.70
2022-12-03T00:36:08.219Z,10.20
2022-12-03T00:41:09.265Z,15.60
2022-12-03T00:46:11.086Z,15.80
2022-12-03T00:51:12.219Z,16.70
2022-12-03T00:56:13.555Z,14.80
2022-12-03T01:01:15.017Z,13.20
2022-12-03T01:06:16.467Z,13.90
2022-12-03T01:11:36.373Z,10.70
2022-12-03T01:16:38.953Z,11.00
2022-12-03T01:21:40.789Z,13.30
2022-12-03T01:26:42.147Z,15.80
2022-12-03T01:32:02.064Z,13.10
2022-12-03T01:37:03.573Z,8.90
2022-12-03T01:42:06.179Z,9.60
2022-12-03T01:47:17.446Z,11.60
2022-12-03T01:52:23.466Z,12.50
2022-12-03T01:57:37.030Z,13.20
2022-12-03T02:02:38.650Z,11.50
2022-12-03T02:07:40.248Z,7.80
2022-12-03T02:12:46.608Z,9.60
2022-12-03T02:17:48.059Z,12.70
2022-12-03T02:23:13.309Z,15.90
2022-12-03T02:28:14.476Z,11.30
2022-12-03T02:33:15.907Z,10.20
2022-12-03T02:38:20.817Z,9.80
2022-12-03T02:43:22.942Z,13.30
2022-12-03T02:48:35.010Z,7.10
2022-12-03T02:53:43.682Z,10.50
2022-12-03T02:58:47.677Z,10.40
2022-12-03T03:03:50.388Z,11.10
2022-12-03T03:08:51.939Z,13.20
2022-12-03T03:13:53.338Z,12.30
2022-12-03T03:18:54.723Z,9.30
2022-12-03T03:23:55.785Z,11.00
2022-12-03T03:28:59.206Z,9.40
2022-12-03T03:34:00.470Z,13.50
2022-12-03T03:39:04.188Z,10.00
2022-12-03T03:44:07.219Z,12.10
2022-12-03T03:49:09.814Z,10.40
2022-12-03T03:54:11.760Z,10.60
2022-12-03T03:59:13.867Z,13.40
2022-12-03T04:04:20.960Z,7.30
2022-12-03T04:09:22.083Z,8.40
2022-12-03T04:14:23.217Z,6.50
2022-12-03T04:19:24.629Z,5.40
2022-12-03T04:29:26.967Z,11.30
2022-12-03T04:34:46.938Z,9.30
2022-12-03T04:39:48.165Z,9.80
2022-12-03T04:44:49.445Z,13.60
2022-12-03T04:49:51.248Z,8.10
2022-12-03T04:54:52.786Z,10.80
2022-12-03T04:59:54.095Z,6.60
2022-12-03T05:09:57.085Z,10.90
2022-12-03T05:14:58.436Z,12.00
2022-12-03T05:20:18.338Z,9.00
2022-12-03T05:25:19.622Z,10.60
2022-12-03T05:35:23.373Z,11.60
2022-12-03T05:40:24.932Z,8.40
2022-12-03T05:45:27.823Z,9.20
2022-12-03T05:50:33.091Z,11.20
2022-12-03T05:55:34.373Z,7.70
2022-12-03T06:00:42.740Z,9.20
2022-12-03T06:05:45.322Z,8.10
2022-12-03T06:10:46.744Z,8.60
2022-12-03T06:20:49.498Z,10.50
2022-12-03T06:25:50.557Z,10.10
2022-12-03T06:35:52.902Z,8.40
2022-12-03T06:45:54.966Z,10.70
2022-12-03T06:55:57.400Z,9.80
2022-12-03T07:00:58.542Z,13.80
2022-12-03T07:05:59.658Z,11.70
2022-12-03T07:11:00.789Z,7.00
2022-12-03T07:16:02.003Z,7.80
2022-12-03T07:21:03.200Z,12.30
2022-12-03T07:26:04.925Z,11.30
2022-12-03T07:31:06.063Z,8.00
2022-12-03T07:36:08.894Z,9.40
2022-12-03T07:41:10.074Z,12.00
2022-12-03T07:46:11.325Z,13.10
2022-12-03T07:51:15.256Z,15.40
2022-12-03T07:56:16.997Z,16.10
2022-12-03T08:01:18.202Z,17.90
2022-12-03T08:06:19.500Z,14.90
2022-12-03T08:11:20.599Z,17.30
2022-12-03T08:21:23.276Z,13.90
2022-12-03T08:31:33.671Z,11.90
2022-12-03T08:36:35.705Z,16.60
2022-12-03T08:41:54.730Z,15.50
2022-12-03T08:47:18.961Z,14.40
2022-12-03T08:52:22.123Z,17.40
2022-12-03T08:57:30.849Z,16.20
2022-12-03T09:02:33.619Z,8.00
2022-12-03T09:07:34.901Z,16.30
2022-12-03T09:12:36.183Z,11.80
2022-12-03T09:27:40.749Z,9.60
2022-12-03T09:32:42.137Z,10.10
2022-12-03T09:37:43.268Z,17.40
2022-12-03T09:42:45.101Z,12.50
2022-12-03T09:47:48.737Z,20.90
2022-12-03T09:52:54.037Z,13.10
2022-12-03T09:57:56.598Z,14.30
2022-12-03T10:03:02.089Z,18.10
2022-12-03T10:08:06.143Z,15.70
2022-12-03T10:13:11.970Z,14.40
2022-12-03T10:18:20.822Z,14.90
2022-12-03T10:23:28.094Z,17.40
2022-12-03T10:28:38.466Z,12.90
2022-12-03T10:33:46.421Z,15.60
2022-12-03T10:39:07.042Z,12.70
2022-12-03T10:44:21.325Z,13.10
2022-12-03T10:49:22.906Z,9.20
2022-12-03T10:59:33.202Z,9.50
2022-12-03T11:04:36.081Z,13.80
2022-12-03T11:09:38.291Z,16.60
2022-12-03T11:15:05.436Z,15.40
2022-12-03T11:20:29.694Z,17.30
2022-12-03T11:25:49.598Z,14.00
2022-12-03T11:30:50.700Z,14.80
2022-12-03T11:36:12.002Z,14.70
2022-12-03T11:46:15.642Z,9.50
2022-12-03T11:51:20.603Z,15.10
2022-12-03T11:56:28.436Z,18.60
2022-12-03T12:01:38.606Z,16.00
2022-12-03T12:06:42.667Z,16.00
2022-12-03T12:11:43.808Z,11.60
2022-12-03T12:21:52.998Z,15.70
2022-12-03T12:26:55.478Z,16.20
2022-12-03T12:32:08.207Z,15.00
2022-12-03T12:37:28.117Z,12.50
2022-12-03T12:42:30.895Z,14.30
2022-12-03T12:47:38.089Z,17.30
2022-12-03T12:52:50.833Z,14.70
2022-12-03T12:57:52.389Z,13.70
2022-12-03T13:02:59.244Z,16.30
2022-12-03T13:08:02.742Z,11.90
2022-12-03T13:13:32.041Z,12.20
2022-12-03T13:18:36.140Z,12.50
2022-12-03T13:23:38.638Z,13.10
2022-12-03T13:28:40.993Z,9.00
2022-12-03T13:33:42.280Z,13.30
2022-12-03T13:38:47.160Z,13.50
2022-12-03T13:43:49.354Z,11.20
2022-12-03T13:53:52.106Z,17.20
2022-12-03T13:58:54.994Z,9.60
2022-12-03T14:03:56.223Z,14.20
2022-12-03T14:08:57.327Z,13.40
2022-12-03T14:18:59.418Z,17.50
2022-12-03T14:34:09.700Z,15.30
2022-12-03T14:39:10.871Z,16.60
2022-12-03T14:49:13.903Z,18.30
2022-12-03T14:54:15.103Z,10.60
2022-12-03T15:09:18.925Z,18.90
2022-12-03T15:14:20.040Z,14.90
2022-12-03T15:19:21.081Z,9.60
2022-12-03T15:29:23.753Z,10.90
2022-12-03T15:34:24.814Z,11.80
2022-12-03T15:39:26.333Z,9.80
2022-12-03T15:44:27.395Z,13.20
2022-12-03T15:54:29.792Z,13.20
2022-12-03T15:59:31.122Z,23.10
2022-12-03T16:09:33.543Z,10.20
2022-12-03T16:14:34.960Z,14.00
2022-12-03T16:19:36.394Z,11.60
2022-12-03T16:24:37.776Z,18.20
2022-12-03T16:29:40.135Z,19.50
2022-12-03T16:34:41.697Z,13.40
2022-12-03T16:39:42.883Z,8.60
2022-12-03T16:45:04.693Z,15.20
2022-12-03T16:50:09.133Z,18.60
2022-12-03T16:55:10.897Z,15.60
2022-12-03T17:00:13.283Z,16.30
2022-12-03T17:05:14.345Z,15.30
2022-12-03T17:15:16.608Z,15.10
2022-12-03T17:20:18.123Z,7.70
2022-12-03T17:25:19.362Z,19.30
2022-12-03T17:30:20.855Z,15.20
2022-12-03T17:35:22.022Z,17.70
2022-12-03T17:40:23.184Z,16.40
2022-12-03T17:45:24.408Z,20.70
2022-12-03T17:50:27.083Z,16.90
2022-12-03T17:55:38.376Z,17.30
2022-12-03T18:00:44.675Z,17.50
2022-12-03T18:05:45.774Z,19.20
2022-12-03T18:15:48.982Z,13.20
2022-12-03T18:20:52.404Z,24.50
2022-12-03T18:25:54.448Z,21.20
2022-12-03T18:30:55.514Z,15.70
2022-12-03T18:35:57.449Z,19.40
2022-12-03T18:40:59.130Z,17.40
2022-12-03T18:46:00.715Z,21.90
2022-12-03T18:51:04.484Z,14.30
2022-12-03T18:56:06.327Z,9.20
2022-12-03T19:01:15.112Z,14.10
2022-12-03T19:06:20.423Z,12.30
2022-12-03T19:11:21.552Z,16.10
2022-12-03T19:16:22.847Z,19.40
2022-12-03T19:21:24.049Z,18.50
2022-12-03T19:26:26.588Z,20.10
2022-12-03T19:31:29.929Z,20.60
2022-12-03T19:36:31.400Z,22.10
2022-12-03T19:41:32.639Z,16.00
2022-12-03T19:46:34.030Z,15.30
2022-12-03T19:51:35.899Z,18.40
2022-12-03T19:56:37.387Z,20.40
2022-12-03T20:01:39.948Z,19.50
2022-12-03T20:06:41.250Z,21.40
2022-12-03T20:11:43.826Z,17.30
2022-12-03T20:16:46.161Z,23.30
2022-12-03T20:21:47.247Z,25.90
2022-12-03T20:31:49.498Z,20.10
2022-12-03T20:36:50.789Z,18.40
2022-12-03T20:51:54.383Z,15.00
2022-12-03T20:56:55.865Z,20.20
2022-12-03T21:06:58.475Z,23.50
2022-12-03T21:17:09.613Z,21.90
2022-12-03T21:22:11.014Z,17.50
2022-12-03T21:27:14.615Z,29.80
2022-12-03T21:32:19.475Z,23.70
2022-12-03T21:42:35.629Z,17.90
2022-12-03T21:47:38.135Z,19.00
2022-12-03T21:52:39.839Z,19.00
2022-12-03T21:57:40.872Z,17.50
2022-12-03T22:17:46.084Z,20.80
2022-12-03T22:22:47.248Z,21.80
2022-12-03T22:27:48.725Z,20.70
2022-12-03T22:32:49.871Z,22.20
2022-12-03T22:37:50.960Z,20.30
2022-12-03T22:42:52.003Z,20.30
2022-12-03T22:47:53.062Z,22.50
2022-12-03T22:52:54.104Z,19.90
2022-12-03T23:02:56.658Z,22.00
2022-12-03T23:07:58.253Z,19.90
2022-12-03T23:12:59.690Z,17.00
2022-12-03T23:18:00.924Z,18.50
2022-12-03T23:23:02.260Z,17.10
2022-12-03T23:28:04.495Z,13.90
2022-12-03T23:33:05.935Z,20.30
2022-12-03T23:38:07.075Z,22.50
2022-12-03T23:48:09.406Z,14.60
2022-12-03T23:53:10.483Z,22.40
